EETN

Tallinn Airport

Tallinn, Estonia
METAR EETN 201450Z 01006KT 9999 BKN009 M07/M09 Q1027 R08/19//95 NOSIG
Observed Flight Rules
Feb-20 @ 14:50 UTC (2 hours ago) Instrument Flight Rules
Wind Visibility Clouds
10° at 6 knots 10,000+ meters
  • Broken at 900' AGL
Temperatures Readings
Current -7°C / 19°F
Dewpoint -9°C / 16°F
Humidity 86%
Altimeter 30.32" Hg
Pressure 1027 hPa
Elevation 40
METAR EETN 201450Z 01006KT 9999 BKN009 M07/M09 Q1027 R08/19//95 NOSIG
Observed Flight Rules
Feb-20 @ 14:50 UTC
(2 hours ago)
IFR
Wind Visibility
10° at 6 knots 10,000+ meters
Clouds
  • Broken at 900' AGL
Temperature Dewpoint
-7°C / 19°F -9°C / 16°F
Humidity Altimeter Pressure
86% 30.32" Hg 1027 hPa